Time;durP1;ratioP1;P1;durP2;ratioP2;P2;SDS_P1;SDS_P2;PMS_P1;PMS_P2;Temp;Humidity;BMP_temperature;BMP_pressure;BME280_temperature;BME280_humidity;BME280_pressure;Samples;Min_cycle;Max_cycle;Signal;HPM_P1;HPM_P2
2022/08/29 00:04:52;;;;;;;11.52;3.28;;;;;;;13.11;63.88;100914.94;10121859;29;20049;-77
2022/08/29 00:09:55;;;;;;;6.60;2.78;;;;;;;13.25;63.95;100906.53;10101520;29;20041;-77
2022/08/29 00:15:00;;;;;;;7.78;2.83;;;;;;;13.27;63.74;100917.19;10121958;29;20052;-77
2022/08/29 00:20:04;;;;;;;9.10;3.08;;;;;;;13.40;63.22;100904.41;10104355;29;20045;-77
2022/08/29 00:25:09;;;;;;;7.70;3.13;;;;;;;13.14;64.22;100911.13;10113395;29;20531;-76
2022/08/29 00:30:14;;;;;;;7.60;3.30;;;;;;;12.81;65.25;100908.41;10110488;29;20108;-77
2022/08/29 00:35:20;;;;;;;8.18;3.40;;;;;;;12.88;65.57;100921.38;10108684;29;20108;-77
2022/08/29 00:40:26;;;;;;;7.80;3.22;;;;;;;12.88;65.08;100916.84;10107956;29;20559;-76
2022/08/29 00:45:31;;;;;;;9.45;3.67;;;;;;;13.06;64.74;100914.47;10101367;29;20063;-77
2022/08/29 00:50:40;;;;;;;10.40;3.63;;;;;;;12.99;64.77;100916.78;10121011;29;20045;-77
2022/08/29 00:55:45;;;;;;;7.10;3.38;;;;;;;13.01;64.98;100931.03;10120378;29;20459;-77
2022/08/29 01:00:54;;;;;;;6.90;2.70;;;;;;;12.70;65.80;100921.91;10097991;29;20134;-78
2022/08/29 01:05:57;;;;;;;5.00;2.88;;;;;;;12.58;66.71;100917.50;10120567;29;20063;-76
2022/08/29 01:16:24;;;;;;;6.50;2.92;;;;;;;12.45;66.89;100923.03;10102332;29;20052;-77
2022/08/29 01:21:38;;;;;;;7.10;3.30;;;;;;;12.45;66.87;100932.94;10105626;29;20052;-77
2022/08/29 01:26:44;;;;;;;7.72;2.67;;;;;;;12.37;66.90;100944.34;10120241;29;20044;-77
2022/08/29 01:31:50;;;;;;;7.45;3.72;;;;;;;12.04;68.20;100943.31;10114398;29;20040;-77
2022/08/29 01:37:01;;;;;;;10.27;3.78;;;;;;;11.74;69.25;100957.34;10120419;29;20040;-77
2022/08/29 01:42:09;;;;;;;5.82;3.28;;;;;;;11.44;70.67;100955.16;10111587;29;20052;-76
2022/08/29 01:47:12;;;;;;;8.90;3.70;;;;;;;11.72;69.94;100941.28;10118579;29;20045;-77
2022/08/29 01:52:17;;;;;;;7.65;3.58;;;;;;;11.79;69.58;100947.03;10128131;29;20079;-77
2022/08/29 01:57:21;;;;;;;8.40;3.60;;;;;;;11.82;69.59;100952.22;10107032;29;20101;-77
2022/08/29 02:02:28;;;;;;;6.82;3.30;;;;;;;11.93;69.09;100951.38;10125950;29;20120;-77
2022/08/29 02:07:31;;;;;;;6.97;3.13;;;;;;;12.03;68.93;100960.44;10105999;29;20041;-77
2022/08/29 02:12:36;;;;;;;7.55;3.40;;;;;;;12.03;69.04;100957.75;10106971;29;20057;-76
2022/08/29 02:17:39;;;;;;;8.43;3.42;;;;;;;11.83;69.64;100955.75;10118392;29;20052;-76
2022/08/29 02:22:42;;;;;;;9.85;3.38;;;;;;;11.92;69.80;100946.97;10113739;29;20057;-76
2022/08/29 02:27:46;;;;;;;7.03;3.25;;;;;;;12.10;69.03;100948.22;10113898;29;20052;-76
2022/08/29 02:32:50;;;;;;;6.72;3.25;;;;;;;12.17;68.60;100938.66;10121087;29;20048;-76
2022/08/29 02:37:53;;;;;;;6.82;3.55;;;;;;;12.32;68.14;100949.25;10121688;29;20048;-76
2022/08/29 02:42:57;;;;;;;8.77;3.25;;;;;;;12.29;67.88;100950.34;10109756;29;20469;-76
2022/08/29 02:48:00;;;;;;;7.05;3.83;;;;;;;12.11;68.58;100955.31;10101995;29;20511;-76
2022/08/29 02:53:03;;;;;;;9.30;3.63;;;;;;;12.12;69.08;100950.78;10125498;29;20108;-76
2022/08/29 02:58:08;;;;;;;10.63;3.67;;;;;;;12.23;68.35;100952.63;10104571;29;20052;-75
2022/08/29 03:03:11;;;;;;;11.35;3.60;;;;;;;12.25;67.83;100946.13;10122459;29;20099;-76
2022/08/29 03:08:14;;;;;;;5.55;2.67;;;;;;;12.14;67.72;100946.97;10107502;29;20067;-76
2022/08/29 03:13:19;;;;;;;7.25;3.20;;;;;;;12.11;67.65;100943.69;10116644;29;20573;-76
2022/08/29 03:18:22;;;;;;;8.63;3.47;;;;;;;11.95;68.14;100939.50;10118142;29;20070;-76
2022/08/29 03:23:25;;;;;;;6.80;3.25;;;;;;;11.89;68.10;100945.34;10118520;29;20053;-76
2022/08/29 03:28:29;;;;;;;5.30;2.80;;;;;;;11.86;68.22;100948.28;10105631;29;20041;-76
2022/08/29 03:33:32;;;;;;;5.93;3.08;;;;;;;11.79;68.13;100955.13;10122315;29;20093;-76
2022/08/29 03:38:36;;;;;;;8.90;3.80;;;;;;;11.81;68.17;100955.88;10102616;29;20049;-76
2022/08/29 03:43:41;;;;;;;8.75;3.45;;;;;;;11.76;67.88;100960.75;10123755;29;20117;-76
2022/08/29 03:48:43;;;;;;;7.68;3.63;;;;;;;11.78;67.93;100953.41;10101425;29;20045;-76
2022/08/29 03:53:46;;;;;;;7.03;3.60;;;;;;;11.84;67.81;100962.84;10102520;29;20049;-75
2022/08/29 03:58:51;;;;;;;8.10;3.92;;;;;;;11.83;67.96;100956.59;10119506;29;20134;-76
2022/08/29 04:03:56;;;;;;;5.68;3.55;;;;;;;11.81;68.06;100961.25;10111222;29;20053;-77
2022/08/29 04:09:00;;;;;;;8.15;3.30;;;;;;;11.82;68.11;100954.03;10116714;29;20471;-77
2022/08/29 04:14:04;;;;;;;10.25;4.53;;;;;;;11.96;68.23;100959.22;10132605;23;20056;-79
2022/08/29 04:19:07;;;;;;;13.02;4.15;;;;;;;11.91;67.99;100961.41;10111904;29;20063;-79
2022/08/29 04:24:11;;;;;;;10.23;4.10;;;;;;;11.88;68.11;100970.56;10116154;29;20407;-78
2022/08/29 04:29:15;;;;;;;9.18;3.63;;;;;;;11.94;69.00;100966.56;10113311;29;20045;-80
2022/08/29 04:34:19;;;;;;;10.30;2.85;;;;;;;12.19;68.07;100962.78;10107272;29;20245;-77
2022/08/29 04:39:22;;;;;;;8.80;3.45;;;;;;;12.30;67.28;100968.22;10126276;29;20112;-77
2022/08/29 04:44:26;;;;;;;9.00;3.50;;;;;;;12.42;66.75;100974.47;10132881;29;20106;-77
2022/08/29 04:49:29;;;;;;;7.88;3.67;;;;;;;12.53;66.38;100970.91;10133342;29;20486;-77
2022/08/29 04:54:32;;;;;;;8.02;3.85;;;;;;;12.65;65.96;100977.19;10148847;29;20052;-75
2022/08/29 04:59:36;;;;;;;9.23;3.53;;;;;;;12.76;65.40;100974.47;10135856;29;20050;-75
2022/08/29 05:04:39;;;;;;;11.68;3.50;;;;;;;12.64;65.69;100981.69;10141000;29;20052;-76
2022/08/29 05:09:42;;;;;;;11.80;3.47;;;;;;;12.73;65.46;100980.13;10120139;29;20052;-75
2022/08/29 05:14:46;;;;;;;6.85;3.85;;;;;;;12.68;65.37;100987.72;10139889;29;20490;-77
2022/08/29 05:19:50;;;;;;;6.25;3.85;;;;;;;12.71;65.26;100984.75;10124083;29;20391;-76
2022/08/29 05:24:55;;;;;;;13.23;3.42;;;;;;;12.91;65.36;100988.53;10131575;29;20509;-75
2022/08/29 05:30:00;;;;;;;9.70;3.25;;;;;;;12.94;65.06;100991.81;10103837;29;20053;-76
2022/08/29 05:35:03;;;;;;;7.05;3.50;;;;;;;13.14;64.95;101001.00;10111874;29;20056;-75
2022/08/29 05:40:07;;;;;;;5.55;3.55;;;;;;;13.47;63.74;100991.97;10117198;29;20041;-75
2022/08/29 05:45:12;;;;;;;9.27;3.20;;;;;;;13.77;63.03;100997.59;10127471;29;20202;-77
2022/08/29 05:50:15;;;;;;;7.05;3.60;;;;;;;13.50;63.67;100996.25;10127981;29;20045;-74
2022/08/29 05:55:18;;;;;;;4.68;2.75;;;;;;;13.21;64.92;100990.56;10123325;29;20049;-77
2022/08/29 06:00:23;;;;;;;7.63;4.25;;;;;;;13.42;65.82;100990.66;10072442;29;20143;-76
2022/08/29 06:05:26;;;;;;;7.65;3.72;;;;;;;13.43;66.10;100990.50;10091168;29;20125;-78
2022/08/29 06:10:29;;;;;;;5.78;3.45;;;;;;;13.28;67.74;100991.75;10085910;29;20087;-76
2022/08/29 06:15:33;;;;;;;7.25;3.15;;;;;;;13.92;66.19;100997.16;10050806;29;20129;-76
2022/08/29 06:20:38;;;;;;;6.88;3.58;;;;;;;14.56;63.75;100995.28;10065656;29;20056;-77
2022/08/29 06:25:40;;;;;;;6.78;3.50;;;;;;;15.20;61.99;101011.16;10073318;29;20085;-78
2022/08/29 06:30:45;;;;;;;9.32;3.85;;;;;;;15.18;59.40;101006.88;10075158;29;20181;-77
2022/08/29 06:35:48;;;;;;;10.18;4.28;;;;;;;15.22;60.52;100992.94;10058046;29;20052;-77
2022/08/29 06:40:50;;;;;;;13.73;4.38;;;;;;;15.37;59.90;100995.25;10057740;29;20135;-77
2022/08/29 06:45:54;;;;;;;10.13;4.90;;;;;;;15.14;60.54;100990.06;10078637;29;20255;-78
2022/08/29 06:51:01;;;;;;;7.00;3.80;;;;;;;14.99;61.06;100988.75;10055695;29;20125;-78
2022/08/29 06:56:05;;;;;;;5.13;3.20;;;;;;;15.58;59.41;100996.00;10059130;29;20156;-78
2022/08/29 07:01:17;;;;;;;10.73;4.00;;;;;;;15.92;58.27;100999.09;10034799;29;20049;-78
2022/08/29 07:06:20;;;;;;;9.88;3.78;;;;;;;16.00;57.06;101014.63;10083369;29;20048;-78
2022/08/29 07:11:24;;;;;;;10.15;4.00;;;;;;;15.88;57.72;101011.22;10046928;29;20053;-77
2022/08/29 07:16:29;;;;;;;7.32;4.47;;;;;;;16.30;57.29;100994.63;10054925;29;20114;-76
2022/08/29 07:21:33;;;;;;;7.18;3.97;;;;;;;16.96;56.04;101000.94;10070942;29;20196;-77
2022/08/29 07:26:40;;;;;;;8.55;4.07;;;;;;;17.13;55.25;101004.69;10060533;29;21256;-78
2022/08/29 07:31:46;;;;;;;12.65;4.15;;;;;;;17.42;54.66;101018.13;10041507;29;20053;-77
2022/08/29 07:36:49;;;;;;;16.10;3.88;;;;;;;17.76;54.53;101011.97;10057394;29;20515;-76
2022/08/29 07:41:52;;;;;;;11.95;4.15;;;;;;;17.93;52.29;101011.94;10079021;29;20044;-76
2022/08/29 07:46:57;;;;;;;8.50;4.45;;;;;;;17.49;54.07;101013.75;10073981;29;20502;-76
2022/08/29 07:52:00;;;;;;;8.63;4.22;;;;;;;18.02;53.46;101014.78;10090883;29;20204;-76
2022/08/29 07:57:03;;;;;;;6.40;3.45;;;;;;;17.82;54.21;101019.50;10077347;29;20096;-77
2022/08/29 08:02:07;;;;;;;11.75;3.72;;;;;;;17.99;53.70;101029.56;10044746;29;20910;-76
2022/08/29 08:07:10;;;;;;;8.57;3.58;;;;;;;18.06;55.70;101027.06;10076602;29;21175;-77
2022/08/29 08:12:15;;;;;;;9.00;3.28;;;;;;;18.94;53.51;101021.50;10056288;29;20049;-77
2022/08/29 08:17:20;;;;;;;5.57;3.30;;;;;;;19.60;52.01;101023.41;10054157;29;20053;-77
2022/08/29 08:22:23;;;;;;;8.70;3.38;;;;;;;18.64;54.36;101020.13;10069964;29;20131;-76
2022/08/29 08:27:26;;;;;;;11.05;3.67;;;;;;;19.54;53.18;101023.19;10072059;29;20088;-77
2022/08/29 08:32:30;;;;;;;7.22;2.97;;;;;;;19.56;54.14;101022.03;10072142;29;20105;-76
2022/08/29 08:37:35;;;;;;;5.97;2.83;;;;;;;21.31;50.14;101018.69;10093082;29;20059;-76
2022/08/29 08:42:41;;;;;;;6.88;3.17;;;;;;;20.45;51.20;101028.50;10069390;29;20435;-78
2022/08/29 08:47:50;;;;;;;8.13;2.75;;;;;;;20.46;52.47;101024.78;10049462;29;20085;-75
2022/08/29 08:52:58;;;;;;;6.57;2.80;;;;;;;19.15;55.31;101018.34;10053275;29;20215;-76
2022/08/29 08:58:09;;;;;;;5.85;2.95;;;;;;;20.39;52.22;101012.84;10052293;29;20085;-77
2022/08/29 09:03:47;;;;;;;9.20;2.50;;;;;;;21.29;50.35;101009.81;10031074;29;20098;-76
2022/08/29 09:09:00;;;;;;;7.05;2.45;;;;;;;20.18;52.44;101012.50;10051569;29;20053;-76
2022/08/29 09:14:07;;;;;;;7.45;2.90;;;;;;;20.11;53.96;101010.47;10094917;29;20049;-77
2022/08/29 09:19:13;;;;;;;7.57;2.05;;;;;;;21.11;50.66;101028.31;10057810;29;20189;-76
2022/08/29 09:24:26;;;;;;;5.60;2.30;;;;;;;21.86;50.92;101025.00;10037252;29;20491;-76
2022/08/29 09:29:31;;;;;;;6.18;2.38;;;;;;;22.93;48.44;101017.41;10064626;29;20049;-77
2022/08/29 09:34:37;;;;;;;6.82;2.45;;;;;;;23.91;44.90;101009.66;10036041;29;20120;-78
2022/08/29 09:40:05;;;;;;;6.30;2.33;;;;;;;22.83;46.47;101011.38;10026510;29;20504;-76
2022/08/29 09:45:18;;;;;;;6.13;2.58;;;;;;;22.45;47.74;101018.81;10082235;29;20135;-77
2022/08/29 09:50:25;;;;;;;6.32;2.63;;;;;;;21.33;49.84;101013.84;10100861;29;21316;-78
2022/08/29 09:55:32;;;;;;;3.60;2.13;;;;;;;20.87;50.78;101021.06;10067239;29;20106;-77
2022/08/29 10:00:38;;;;;;;6.43;2.50;;;;;;;20.78;51.48;101017.50;10067863;29;20275;-76
2022/08/29 10:05:45;;;;;;;4.85;2.53;;;;;;;21.55;50.51;101025.00;10070405;29;20136;-75
2022/08/29 10:10:54;;;;;;;6.05;2.70;;;;;;;21.70;49.86;101017.72;10096121;29;20076;-77
2022/08/29 10:16:06;;;;;;;4.35;2.30;;;;;;;20.89;51.64;101017.13;10078147;29;20064;-77
2022/08/29 10:21:19;;;;;;;4.28;2.28;;;;;;;21.30;52.32;101022.41;10068355;29;20056;-76
2022/08/29 10:26:33;;;;;;;4.88;2.53;;;;;;;20.43;53.36;101029.72;10071576;29;20701;-78
2022/08/29 10:31:41;;;;;;;5.25;2.53;;;;;;;19.71;56.14;101030.41;10078782;29;20048;-78
2022/08/29 10:36:51;;;;;;;6.50;3.10;;;;;;;19.95;55.91;101031.44;10097237;29;20048;-77
2022/08/29 10:41:59;;;;;;;6.72;2.70;;;;;;;20.77;53.40;101018.53;10112115;29;20053;-77
2022/08/29 10:47:17;;;;;;;7.78;2.85;;;;;;;21.34;52.92;101015.59;10081666;29;20136;-77
2022/08/29 10:52:28;;;;;;;6.07;3.05;;;;;;;20.13;55.32;101019.34;10076285;29;20524;-77
2022/08/29 10:57:43;;;;;;;6.32;2.83;;;;;;;20.03;55.91;101023.25;10085338;29;20053;-78
2022/08/29 11:02:52;;;;;;;10.40;2.85;;;;;;;20.51;55.24;101021.50;10076005;29;20459;-78
2022/08/29 11:08:02;;;;;;;6.22;2.50;;;;;;;20.98;53.73;101024.28;10080133;29;20076;-78
2022/08/29 11:13:10;;;;;;;5.03;2.85;;;;;;;20.52;54.25;101029.53;10087716;29;20053;-78
2022/08/29 11:18:33;;;;;;;5.95;2.92;;;;;;;22.03;51.89;101023.81;10089834;29;20141;-76
2022/08/29 11:23:40;;;;;;;;;;;;;;;23.50;48.83;101014.94;10095687;29;20048;-78
2022/08/29 11:28:53;;;;;;;6.15;2.63;;;;;;;24.96;44.50;101013.38;10082863;29;20094;-78
2022/08/29 11:34:07;;;;;;;3.40;2.35;;;;;;;26.91;42.23;101001.28;10085127;29;20547;-77
2022/08/29 11:39:32;;;;;;;5.13;2.78;;;;;;;27.41;39.54;101000.66;10088836;29;20052;-76
2022/08/29 11:44:39;;;;;;;6.35;2.70;;;;;;;24.42;43.77;101004.00;10080435;29;20052;-78
2022/08/29 11:49:45;;;;;;;7.03;3.08;;;;;;;25.12;44.77;100996.56;10085697;29;20048;-78
2022/08/29 11:55:12;;;;;;;4.70;2.92;;;;;;;26.94;40.98;100980.72;10087990;29;20060;-78
2022/08/29 12:00:33;;;;;;;5.43;2.42;;;;;;;25.28;42.72;100976.09;10087241;29;20121;-78
2022/08/29 12:05:58;;;;;;;5.18;3.03;;;;;;;23.17;46.85;100986.09;10077080;29;20057;-78
2022/08/29 12:11:02;;;;;;;4.65;3.00;;;;;;;23.12;47.54;100982.25;10081219;29;20129;-76
2022/08/29 12:16:08;;;;;;;5.65;3.42;;;;;;;22.74;49.65;100980.50;10074435;29;20088;-77
2022/08/29 12:21:41;;;;;;;6.50;3.05;;;;;;;23.40;47.22;100969.50;10071704;29;20093;-77
2022/08/29 12:26:47;;;;;;;10.38;3.85;;;;;;;25.48;43.34;100959.66;10082896;29;20142;-78
2022/08/29 12:32:26;;;;;;;5.68;3.50;;;;;;;25.76;41.84;100950.41;10082777;29;21291;-78
2022/08/29 12:37:55;;;;;;;6.00;2.90;;;;;;;27.51;39.48;100934.81;10083282;29;20071;-78
2022/08/29 12:43:23;;;;;;;5.82;2.92;;;;;;;30.63;35.69;100932.47;10083309;29;20185;-79
2022/08/29 12:48:33;;;;;;;7.80;2.80;;;;;;;31.72;32.69;100928.78;10084672;29;20091;-80
2022/08/29 12:53:36;;;;;;;6.65;2.80;;;;;;;29.08;36.43;100934.50;10082960;29;21536;-79
2022/08/29 12:58:43;;;;;;;8.63;3.15;;;;;;;28.57;36.17;100918.34;10078476;29;20144;-80
2022/08/29 13:03:55;;;;;;;8.70;3.05;;;;;;;28.34;36.63;100908.78;10077049;29;20058;-78
2022/08/29 13:08:59;;;;;;;6.78;3.08;;;;;;;27.34;38.67;100909.66;10087519;29;20056;-80
2022/08/29 13:14:10;;;;;;;5.53;2.67;;;;;;;28.38;37.79;100898.13;10097494;29;20052;-79
2022/08/29 13:19:20;;;;;;;4.65;2.80;;;;;;;27.17;39.07;100906.56;10082327;29;20057;-79
2022/08/29 13:24:23;;;;;;;5.53;2.80;;;;;;;26.31;40.84;100901.44;10090209;29;20090;-78
2022/08/29 13:29:34;;;;;;;5.75;3.30;;;;;;;25.81;41.76;100906.59;10094676;29;21226;-79
2022/08/29 13:34:37;;;;;;;4.97;3.15;;;;;;;26.09;41.05;100892.56;10102173;29;20174;-79
2022/08/29 13:39:44;;;;;;;8.07;3.60;;;;;;;26.16;41.60;100890.63;10083798;29;20143;-79
2022/08/29 13:45:09;;;;;;;7.07;3.10;;;;;;;27.21;40.21;100882.16;10084746;29;20075;-78
2022/08/29 13:50:13;;;;;;;7.10;3.35;;;;;;;27.48;39.60;100881.97;10102953;29;20060;-78
2022/08/29 13:55:16;;;;;;;3.72;2.40;;;;;;;28.15;38.81;100882.25;10099885;29;20044;-78
2022/08/29 14:00:23;;;;;;;7.13;3.33;;;;;;;28.31;37.69;100878.03;10088656;29;20057;-76
2022/08/29 14:05:35;;;;;;;5.75;2.63;;;;;;;27.35;38.94;100881.00;10085014;29;20422;-78
2022/08/29 14:10:38;;;;;;;4.93;2.67;;;;;;;26.63;39.11;100879.47;10090653;29;20049;-77
2022/08/29 14:15:43;;;;;;;7.95;2.50;;;;;;;26.22;40.89;100876.03;10091247;29;20052;-78
2022/08/29 14:20:46;;;;;;;4.05;2.78;;;;;;;27.63;38.46;100876.16;10098650;29;20052;-78
2022/08/29 14:25:55;;;;;;;3.58;2.28;;;;;;;27.54;38.27;100870.06;10092084;29;20664;-76
2022/08/29 14:30:59;;;;;;;3.78;2.33;;;;;;;27.38;38.72;100869.50;10075930;29;20888;-78
2022/08/29 14:36:02;;;;;;;5.80;3.90;;;;;;;27.65;38.54;100858.28;10076753;29;20068;-78
2022/08/29 14:41:05;;;;;;;4.30;2.97;;;;;;;27.49;37.27;100867.13;10076415;29;20068;-78
2022/08/29 14:46:10;;;;;;;3.72;2.45;;;;;;;27.80;37.66;100849.66;10105952;29;20060;-78
2022/08/29 14:51:13;;;;;;;6.53;2.50;;;;;;;28.03;37.28;100855.41;10073959;29;20063;-76
2022/08/29 14:56:27;;;;;;;6.15;2.50;;;;;;;27.59;37.14;100854.53;10097527;29;20037;-78
2022/08/29 15:01:51;;;;;;;3.85;2.35;;;;;;;28.18;37.32;100855.00;10074741;29;20101;-78
2022/08/29 15:06:57;;;;;;;5.05;2.40;;;;;;;28.81;35.78;100856.56;10072278;29;20435;-77
2022/08/29 15:12:00;;;;;;;3.80;2.65;;;;;;;29.53;34.82;100844.63;10083656;29;20049;-77
2022/08/29 15:17:04;;;;;;;5.25;1.80;;;;;;;29.80;34.30;100856.94;10081210;29;20076;-77
2022/08/29 15:22:07;;;;;;;2.88;1.92;;;;;;;28.05;37.21;100846.88;10083302;29;20543;-76
2022/08/29 15:27:11;;;;;;;4.68;2.92;;;;;;;28.00;36.94;100838.41;10081627;29;20056;-77
2022/08/29 15:32:18;;;;;;;6.28;3.03;;;;;;;26.47;38.65;100847.78;10073576;29;20113;-76
2022/08/29 15:37:22;;;;;;;4.57;2.95;;;;;;;26.56;39.46;100840.13;10078270;29;20076;-77
2022/08/29 15:42:29;;;;;;;3.65;2.42;;;;;;;27.13;39.40;100838.31;10077017;29;20418;-77
2022/08/29 15:47:34;;;;;;;3.58;2.25;;;;;;;26.48;40.85;100835.69;10083242;29;20060;-77
2022/08/29 15:52:37;;;;;;;4.97;2.80;;;;;;;26.30;40.73;100839.16;10079423;29;20147;-77
2022/08/29 15:57:40;;;;;;;4.88;2.50;;;;;;;26.57;39.64;100826.13;10083508;29;20757;-76
2022/08/29 16:02:55;;;;;;;3.13;2.17;;;;;;;27.72;38.53;100828.69;10079080;29;20152;-77
2022/08/29 16:07:59;;;;;;;4.68;2.30;;;;;;;28.16;36.31;100818.47;10097282;29;20052;-75
2022/08/29 16:13:03;;;;;;;3.67;2.33;;;;;;;27.30;37.69;100817.38;10083000;29;20056;-76
2022/08/29 16:18:07;;;;;;;5.38;2.72;;;;;;;27.56;37.67;100812.72;10079527;29;20093;-77
2022/08/29 16:23:10;;;;;;;5.45;2.90;;;;;;;27.84;36.82;100807.56;10080165;29;20076;-77
2022/08/29 16:28:13;;;;;;;6.07;2.92;;;;;;;27.48;37.96;100805.63;10079910;29;20101;-77
2022/08/29 16:33:18;;;;;;;5.03;2.17;;;;;;;27.57;37.54;100801.47;10079306;29;20132;-77
2022/08/29 16:38:21;;;;;;;4.88;2.45;;;;;;;27.42;37.67;100795.47;10083765;29;20075;-77
2022/08/29 16:43:23;;;;;;;5.05;2.30;;;;;;;27.12;38.53;100793.34;10090116;29;20143;-76
2022/08/29 16:48:28;;;;;;;6.13;2.38;;;;;;;26.87;39.27;100798.00;10071144;29;20144;-77
2022/08/29 16:53:31;;;;;;;3.92;2.40;;;;;;;26.72;39.23;100801.88;10072418;29;20049;-77
2022/08/29 17:04:03;;;;;;;5.95;2.58;;;;;;;25.97;40.47;100793.31;10082623;29;20127;-77
2022/08/29 17:19:15;;;;;;;4.30;2.47;;;;;;;24.88;42.94;100799.25;10078202;29;20136;-77
2022/08/29 17:24:18;;;;;;;8.48;3.55;;;;;;;24.41;43.39;100796.38;10071560;29;20180;-77
2022/08/29 17:29:22;;;;;;;4.18;2.67;;;;;;;23.94;44.35;100797.19;10078840;29;20530;-75
2022/08/29 17:34:26;;;;;;;4.60;3.55;;;;;;;23.58;45.27;100807.25;10074371;29;20072;-77
2022/08/29 17:39:30;;;;;;;3.22;2.38;;;;;;;23.24;46.25;100797.09;10074869;29;20089;-77
2022/08/29 17:44:34;;;;;;;4.10;2.78;;;;;;;22.92;46.93;100796.56;10082430;29;20504;-76
2022/08/29 17:49:38;;;;;;;8.05;2.97;;;;;;;22.59;48.20;100793.47;10071912;29;20049;-76
2022/08/29 17:54:41;;;;;;;6.20;3.25;;;;;;;22.16;49.28;100796.13;10078745;29;20076;-76
2022/08/29 17:59:44;;;;;;;5.03;3.03;;;;;;;21.79;49.77;100799.78;10083189;29;20089;-77
2022/08/29 18:04:48;;;;;;;5.75;3.08;;;;;;;21.51;49.96;100797.66;10076696;29;20896;-77
2022/08/29 18:09:51;;;;;;;5.88;3.03;;;;;;;21.31;51.00;100800.09;10077504;29;20676;-76
2022/08/29 18:14:54;;;;;;;4.50;2.90;;;;;;;21.09;50.74;100801.81;10076592;29;20057;-76
2022/08/29 18:20:00;;;;;;;5.90;3.08;;;;;;;20.91;51.92;100807.56;10075263;29;20111;-76
2022/08/29 18:25:04;;;;;;;3.65;2.80;;;;;;;20.79;51.96;100815.31;10072390;29;20256;-77
2022/08/29 18:30:08;;;;;;;4.88;2.90;;;;;;;20.69;52.36;100822.88;10082018;29;20048;-76
2022/08/29 18:35:12;;;;;;;6.82;3.03;;;;;;;20.53;52.70;100837.47;10089907;29;20097;-76
2022/08/29 18:40:15;;;;;;;5.70;2.83;;;;;;;20.40;53.20;100836.34;10085207;29;20112;-76
2022/08/29 18:45:18;;;;;;;6.10;2.90;;;;;;;20.12;54.39;100836.78;10114720;29;20049;-76
2022/08/29 18:50:35;;;;;;;5.43;3.00;;;;;;;20.10;54.52;100833.38;10095752;29;20083;-77
2022/08/29 18:55:39;;;;;;;3.25;2.95;;;;;;;19.98;54.80;100840.25;10078210;29;20062;-77
2022/08/29 19:00:42;;;;;;;9.25;3.83;;;;;;;19.92;54.51;100846.41;10075051;29;20523;-77
2022/08/29 19:05:49;;;;;;;5.30;2.63;;;;;;;19.82;54.47;100846.59;10070010;29;20076;-75
2022/08/29 19:10:53;;;;;;;3.63;2.80;;;;;;;19.77;54.90;100855.28;10078903;29;20128;-76
2022/08/29 19:15:57;;;;;;;5.22;2.80;;;;;;;19.75;54.94;100860.06;10073460;29;20061;-75
2022/08/29 19:21:05;;;;;;;4.60;2.88;;;;;;;19.69;54.84;100863.47;10094238;29;21076;-76
2022/08/29 19:26:12;;;;;;;3.42;3.00;;;;;;;19.54;55.43;100865.16;10070394;29;20049;-76
2022/08/29 19:31:17;;;;;;;5.03;2.92;;;;;;;19.43;55.36;100869.09;10093027;29;20913;-76
2022/08/29 19:36:22;;;;;;;3.30;2.47;;;;;;;19.36;55.46;100866.22;10090050;29;20041;-77
2022/08/29 19:41:25;;;;;;;4.15;2.65;;;;;;;19.35;55.48;100866.38;10074007;29;20097;-76
2022/08/29 19:46:28;;;;;;;3.58;2.90;;;;;;;19.24;55.74;100862.09;10091995;29;20072;-77
2022/08/29 19:51:32;;;;;;;5.03;2.90;;;;;;;19.13;56.11;100865.16;10061723;29;20065;-77
2022/08/29 19:56:38;;;;;;;6.43;2.53;;;;;;;19.07;56.36;100874.00;10082093;29;21077;-77
2022/08/29 20:01:41;;;;;;;3.63;2.70;;;;;;;18.87;56.88;100876.16;10085274;29;20541;-77
2022/08/29 20:06:45;;;;;;;7.93;2.38;;;;;;;18.82;57.01;100875.84;10056783;29;20080;-77
2022/08/29 20:11:50;;;;;;;3.60;2.53;;;;;;;18.77;56.94;100879.88;10074151;29;20060;-77
2022/08/29 20:16:53;;;;;;;5.10;2.70;;;;;;;18.61;57.37;100876.25;10048359;29;20057;-78
2022/08/29 20:21:57;;;;;;;4.45;2.30;;;;;;;18.60;57.55;100893.59;10061894;29;20438;-78
2022/08/29 20:27:00;;;;;;;3.55;2.63;;;;;;;18.51;57.63;100895.41;10081830;29;20632;-79
2022/08/29 20:32:03;;;;;;;2.67;2.47;;;;;;;18.43;57.93;100898.09;10075689;29;20487;-78
2022/08/29 20:37:12;;;;;;;2.25;2.05;;;;;;;18.34;58.20;100900.78;10076723;29;20104;-77
2022/08/29 20:42:19;;;;;;;2.92;2.50;;;;;;;18.23;58.63;100894.78;10102966;29;20430;-76
2022/08/29 20:47:22;;;;;;;2.60;2.40;;;;;;;18.16;58.97;100902.75;10086309;29;20165;-79
2022/08/29 20:52:26;;;;;;;2.53;2.33;;;;;;;18.03;59.40;100908.59;10058317;29;20067;-79
2022/08/29 20:57:29;;;;;;;5.65;2.42;;;;;;;17.98;59.64;100905.53;10073252;29;20045;-79
2022/08/29 21:07:54;;;;;;;3.95;2.80;;;;;;;17.77;60.21;100913.16;10086190;29;20045;-77
2022/08/29 21:12:57;;;;;;;3.75;2.42;;;;;;;17.70;60.68;100910.22;10082240;29;20049;-78
2022/08/29 21:18:00;;;;;;;3.05;2.30;;;;;;;17.62;60.82;100900.13;10072216;29;20098;-78
2022/08/29 21:23:05;;;;;;;2.70;2.50;;;;;;;17.58;60.87;100909.63;10090806;29;20104;-78
2022/08/29 21:28:08;;;;;;;4.30;2.50;;;;;;;17.48;61.17;100914.28;10061733;29;20116;-78
2022/08/29 21:33:11;;;;;;;4.78;2.15;;;;;;;17.46;61.53;100900.00;10060788;29;20776;-77
2022/08/29 21:38:16;;;;;;;3.00;2.70;;;;;;;17.40;62.11;100906.91;10097811;29;20193;-78
2022/08/29 21:43:19;;;;;;;5.95;2.10;;;;;;;17.31;61.87;100917.88;10092154;29;20109;-77
2022/08/29 21:48:22;;;;;;;2.03;1.92;;;;;;;17.23;62.33;100914.06;10065591;29;20052;-78
2022/08/29 21:53:26;;;;;;;3.40;2.00;;;;;;;17.23;62.28;100919.50;10090136;29;20199;-78
2022/08/29 21:58:29;;;;;;;4.30;2.22;;;;;;;17.21;62.12;100917.94;10098444;29;20085;-79
2022/08/29 22:03:32;;;;;;;2.80;1.90;;;;;;;17.18;62.52;100923.69;10073370;29;20053;-78
2022/08/29 22:08:36;;;;;;;2.50;1.65;;;;;;;17.22;62.14;100920.53;10064251;29;20057;-77
2022/08/29 22:13:40;;;;;;;1.60;1.50;;;;;;;17.22;62.39;100922.34;10076109;29;20102;-78
2022/08/29 22:18:43;;;;;;;3.25;1.73;;;;;;;17.08;62.84;100920.16;10097411;29;20052;-77
2022/08/29 22:23:47;;;;;;;1.83;1.70;;;;;;;17.07;62.62;100927.44;10093020;29;20448;-78
2022/08/29 22:28:51;;;;;;;4.47;1.70;;;;;;;17.01;63.06;100926.19;10073109;29;20478;-79
2022/08/29 22:33:53;;;;;;;3.80;1.58;;;;;;;17.02;62.95;100936.03;10078218;29;20532;-77
2022/08/29 22:38:58;;;;;;;3.65;1.70;;;;;;;17.04;62.98;100933.19;10103137;29;20057;-78
2022/08/29 22:44:02;;;;;;;2.10;2.00;;;;;;;16.95;62.90;100937.69;10089531;29;20077;-78
2022/08/29 22:49:25;;;;;;;2.03;1.65;;;;;;;16.94;63.33;100941.38;10073069;29;20045;-78
2022/08/29 22:54:36;;;;;;;2.45;1.50;;;;;;;16.99;63.24;100944.50;10028898;29;20065;-78
2022/08/29 22:59:40;;;;;;;1.60;1.50;;;;;;;16.84;63.23;100946.03;10102876;29;20085;-78
2022/08/29 23:04:44;;;;;;;1.70;1.55;;;;;;;16.76;63.78;100944.06;10077516;29;20076;-78
2022/08/29 23:09:49;;;;;;;2.42;1.50;;;;;;;16.66;63.74;100950.53;10078781;29;20148;-79
2022/08/29 23:14:52;;;;;;;2.72;2.17;;;;;;;16.59;64.39;100947.56;10097655;29;20147;-78
2022/08/29 23:19:55;;;;;;;3.03;1.50;;;;;;;16.59;64.58;100945.72;10087131;29;20077;-78
2022/08/29 23:25:01;;;;;;;3.00;1.77;;;;;;;16.54;64.55;100950.75;10062126;29;20400;-78
2022/08/29 23:30:07;;;;;;;2.63;2.15;;;;;;;16.53;64.57;100940.88;10081926;29;20173;-79
2022/08/29 23:35:10;;;;;;;1.90;1.75;;;;;;;16.43;64.64;100948.22;10097374;29;20041;-78
2022/08/29 23:40:14;;;;;;;3.20;1.90;;;;;;;16.27;65.34;100950.72;10090830;29;20142;-77
2022/08/29 23:45:18;;;;;;;1.67;1.58;;;;;;;16.29;65.41;100956.81;10061275;29;20053;-78
2022/08/29 23:50:21;;;;;;;2.38;1.80;;;;;;;16.23;65.21;100955.53;10076483;29;20080;-77
2022/08/29 23:55:25;;;;;;;3.65;2.00;;;;;;;16.20;65.42;100952.25;10095643;29;20058;-79
